CYHU/YHU METAR and TAF weather

Enter ICAO airport designator
Station Type Date Time Source
CYHU METAR 2020/03/31 22:00 UTC NOAA

CYHU 312200Z AUTO 05012G20KT 9SM CLR 07/M09 A3007 RMK SLP186


Station Type Date Time Source
CYHU Decoded METAR 2020/03/31 22:00 UTC NOAA

Saint Hubert Airport , Canada (CYHU) 45-31N 073-25W
Mar 31, 2020 - 06:00 PM EDT / 2020.03.31 2200 UTC
Wind: from the NE (050 degrees) at 14 MPH (12 KT) gusting to 23 MPH (20 KT):0
Visibility: 9 mile(s):0
Sky conditions: clear
Temperature: 44 F (7 C)
Dew Point: 15 F (-9 C)
Relative Humidity: 30%
Pressure (altimeter): 30.07 in. Hg (1018 hPa)
ob: CYHU 312200Z AUTO 05012G20KT 9SM CLR 07/M09 A3007 RMK SLP186
cycle: 22

Station Type Date Time Source
CYHU TAF 2020/03/31 18:42 UTC NOAA

TAF CYHU 311738Z 3118/0118 03012G22KT P6SM SKC
BECMG 3123/0101 03010KT
FM011000 02010KT P6SM BKN012
FM011700 03008KT P6SM BKN025
RMK FCST BASED ON AUTO OBS. NXT FCST BY 010000Z

Example: see airport list